• Join FlightAware (Why Join?)
  • Login
  • US Flag 
03:36AM EST


 

Airport Tracker/Info


-or-


 

Live Flight TrackerFlight Track Log ✈ N105LU ✈ 23-Jul-2014 ✈ KBCT - KFPR

Flight Track Log - Related Links

Times and Time Zones

All times are in EDT time to prevent confusion due to time zone crossing. See the N105LU flight status page for this flight to view local times or setup timezone preferences in your user account.

Time Position Orientation Groundspeed Altitude Reporting Facility
EDT Latitude Longitude Course Direction KTS MPH feet Rate Location/Type
04:48PM 26.3697 -80.1172 290° West 83 96 600  Level Miami Center
04:49PM 26.3764 -80.1372 290° West 97 112 1,300 480 Climbing Miami Center
04:50PM 26.4081 -80.1333 North 117 135 1,600 -120 Climbing Miami Center
04:51PM 26.4328 -80.1003 50° Northeast 127 146 1,100 -300 Descending Miami Center
04:52PM 26.4481 -80.0675 62° Northeast 123 142 1,000  Descending Miami Center
04:53PM 26.4778 -80.0453 34° Northeast 127 146 1,100  Climbing Miami Center
04:54PM 26.5133 -80.0400 North 128 147 1,000 -60 Descending Miami Center
04:55PM 26.5467 -80.0256 21° North 128 147 1,000  Level Miami Center
04:56PM 26.5856 -80.0208 North 128 147 1,000  Level Miami Center
04:57PM 26.6222 -80.0189 North 129 148 1,000  Level Miami Center
04:58PM 26.6633 -80.0169 North 133 153 1,000  Level Miami Center
04:59PM 26.7011 -80.0153 North 133 153 1,000  Level Miami Center
05:00PM 26.7419 -80.0167 358° North 134 154 1,000 240 Level Miami Center
05:01PM 26.7786 -80.0275 345° North 134 154 1,500 540 Climbing Miami Center
05:02PM 26.8067 -80.0394 339° North 112 129 2,200 480 Climbing Miami Center
05:03PM 26.8353 -80.0550 334° Northwest 106 122 2,600 180 Climbing Miami Center
05:04PM 26.8697 -80.0722 336° Northwest 125 144 2,600 -120 Level Miami Center
05:05PM 26.9033 -80.0872 338° Northwest 125 144 2,400 -60 Descending Miami Center
05:06PM 26.9361 -80.1028 337° Northwest 124 143 2,500  Climbing Miami Center
05:07PM 26.9656 -80.1194 333° Northwest 124 143 2,500  Level Miami Center
05:08PM 26.9978 -80.1381 333° Northwest 124 143 2,500  Level Miami Center
05:09PM 27.0267 -80.1550 332° Northwest 116 133 2,500  Level Miami Center
05:10PM 27.0581 -80.1717 335° Northwest 116 133 2,500  Level Miami Center